Time;durP1;ratioP1;P1;durP2;ratioP2;P2;SDS_P1;SDS_P2;PMS_P1;PMS_P2;Temp;Humidity;BMP_temperature;BMP_pressure;BME280_temperature;BME280_humidity;BME280_pressure;Samples;Min_cycle;Max_cycle;Signal;HPM_P1;HPM_P2
2022/01/03 00:00:45;;;;;;;;;;;8.90;99.90;;;;;;4946733;28;20061;-56
2022/01/03 00:03:13;;;;;;;15.88;2.58;;;8.90;99.90;;;;;;4973105;28;19922;-56
2022/01/03 00:05:39;;;;;;;15.45;1.90;;;8.90;99.90;;;;;;4947272;28;20050;-56
2022/01/03 00:08:06;;;;;;;11.25;2.28;;;8.90;99.90;;;;;;4973675;28;20137;-56
2022/01/03 00:10:35;;;;;;;17.02;2.78;;;8.90;99.90;;;;;;4953226;28;20042;-57
2022/01/03 00:13:03;;;;;;;15.07;2.65;;;8.90;99.90;;;;;;4953343;28;20077;-56
2022/01/03 00:15:29;;;;;;;17.90;2.85;;;8.80;99.90;;;;;;4940942;28;20509;-55
2022/01/03 00:17:55;;;;;;;20.25;3.33;;;8.80;99.90;;;;;;4955292;28;20066;-56
2022/01/03 00:20:22;;;;;;;16.42;3.03;;;8.80;99.90;;;;;;4929924;28;20039;-59
2022/01/03 00:23:19;;;;;;;14.25;2.72;;;8.80;99.90;;;;;;4953403;28;20261;-57
2022/01/03 00:25:51;;;;;;;17.30;4.00;;;8.80;99.90;;;;;;4925747;28;20062;-57
2022/01/03 00:28:23;;;;;;;17.42;3.33;;;8.80;99.90;;;;;;4953174;28;20046;-56
2022/01/03 00:30:53;;;;;;;12.25;2.83;;;8.80;99.90;;;;;;4949789;28;20039;-57
2022/01/03 00:33:20;;;;;;;14.50;2.90;;;8.80;99.90;;;;;;4962726;28;20073;-57
2022/01/03 00:35:53;;;;;;;21.40;3.55;;;8.80;99.90;;;;;;4968231;28;20524;-54
2022/01/03 00:38:21;;;;;;;17.15;2.88;;;8.70;99.90;;;;;;4964381;28;20046;-58
2022/01/03 00:40:48;;;;;;;19.70;3.70;;;8.70;99.90;;;;;;4965230;28;20105;-57
2022/01/03 00:43:15;;;;;;;15.88;2.97;;;8.70;99.90;;;;;;4963119;28;20066;-57
2022/01/03 00:45:41;;;;;;;20.25;3.22;;;8.70;99.90;;;;;;4980652;28;20137;-58
2022/01/03 00:48:09;;;;;;;17.65;3.38;;;8.70;99.90;;;;;;4940955;28;20093;-58
2022/01/03 00:50:35;;;;;;;27.80;3.45;;;8.70;99.90;;;;;;4966484;28;20038;-57
2022/01/03 00:53:01;;;;;;;22.60;3.17;;;8.70;99.90;;;;;;4948715;28;20049;-56
2022/01/03 00:55:27;;;;;;;17.23;3.15;;;8.70;99.90;;;;;;4935186;28;20445;-58
2022/01/03 00:58:14;;;;;;;23.48;4.60;;;8.70;99.90;;;;;;4966453;28;20044;-54
2022/01/03 01:00:46;;;;;;;24.77;3.50;;;8.70;99.90;;;;;;4957365;28;20536;-54
2022/01/03 01:03:19;;;;;;;21.45;4.45;;;8.70;99.90;;;;;;4980998;28;20349;-56
2022/01/03 01:05:47;;;;;;;19.98;4.35;;;8.70;99.90;;;;;;4925333;28;20046;-57
2022/01/03 01:08:18;;;;;;;25.80;3.72;;;8.70;99.90;;;;;;4973865;28;20463;-58
2022/01/03 01:10:44;;;;;;;24.10;3.90;;;8.70;99.90;;;;;;4949032;28;20042;-58
2022/01/03 01:13:12;;;;;;;34.72;5.53;;;8.70;99.90;;;;;;4958757;28;20448;-57
2022/01/03 01:15:38;;;;;;;21.30;3.63;;;8.80;99.90;;;;;;4942182;28;20746;-57
2022/01/03 01:18:04;;;;;;;21.85;3.45;;;8.70;99.90;;;;;;4942769;28;20631;-58
2022/01/03 01:20:33;;;;;;;28.35;5.53;;;8.80;99.90;;;;;;4956926;28;20097;-59
2022/01/03 01:22:59;;;;;;;28.75;3.58;;;8.80;99.90;;;;;;4962151;28;20042;-58
2022/01/03 01:28:14;;;;;;;23.67;3.88;;;8.90;99.90;;;;;;4935370;28;20060;-57
2022/01/03 01:30:40;;;;;;;25.08;4.35;;;8.90;99.90;;;;;;4954677;28;20057;-57
2022/01/03 01:33:07;;;;;;;20.05;4.07;;;8.90;99.90;;;;;;4939457;28;20116;-58
2022/01/03 01:35:48;;;;;;;22.88;4.13;;;9.00;99.90;;;;;;4956263;28;20093;-59
2022/01/03 01:38:17;;;;;;;19.10;3.70;;;9.00;99.90;;;;;;4978980;28;20050;-58
2022/01/03 01:40:47;;;;;;;22.48;4.18;;;9.00;99.90;;;;;;4962400;28;20093;-58
2022/01/03 01:43:14;;;;;;;28.75;4.78;;;9.00;99.90;;;;;;4978423;28;20149;-58
2022/01/03 01:45:42;;;;;;;24.20;4.78;;;9.00;99.90;;;;;;4920164;28;20046;-59
2022/01/03 01:48:12;;;;;;;30.30;4.88;;;9.10;99.90;;;;;;4981066;28;20066;-58
2022/01/03 01:50:40;;;;;;;30.25;4.35;;;9.10;99.90;;;;;;4977291;28;20130;-57
2022/01/03 01:53:06;;;;;;;28.58;4.88;;;9.10;99.90;;;;;;4982094;28;20132;-55
2022/01/03 01:55:32;;;;;;;24.27;4.90;;;9.10;99.90;;;;;;4962716;28;20505;-56
2022/01/03 01:58:28;;;;;;;20.05;4.75;;;9.10;99.90;;;;;;4956574;28;20041;-58
2022/01/03 02:01:05;;;;;;;28.58;6.20;;;9.10;99.90;;;;;;4960626;28;20062;-57
2022/01/03 02:03:47;;;;;;;26.90;4.85;;;9.00;99.90;;;;;;4971303;28;20074;-58
2022/01/03 02:06:43;;;;;;;23.90;4.93;;;9.00;99.90;;;;;;4962156;28;20054;-57
2022/01/03 02:09:18;;;;;;;27.95;4.95;;;9.00;99.90;;;;;;4974446;28;20042;-59
2022/01/03 02:11:57;;;;;;;23.52;4.10;;;9.00;99.90;;;;;;4958218;28;20046;-58
2022/01/03 02:14:26;;;;;;;23.83;5.90;;;8.90;99.90;;;;;;4986334;28;20103;-59
2022/01/03 02:16:53;;;;;;;27.17;4.38;;;9.00;99.90;;;;;;4952035;28;20044;-58
2022/01/03 02:19:19;;;;;;;37.65;7.72;;;8.90;99.90;;;;;;4976340;28;20049;-58
2022/01/03 02:21:46;;;;;;;30.45;5.28;;;8.90;99.90;;;;;;4960510;28;20065;-54
2022/01/03 02:24:12;;;;;;;30.70;4.88;;;8.90;99.90;;;;;;4979164;28;20050;-54
2022/01/03 02:26:38;;;;;;;20.58;5.43;;;8.90;99.90;;;;;;4965832;28;20651;-57
2022/01/03 02:29:05;;;;;;;24.95;3.60;;;8.90;99.90;;;;;;4966071;28;20070;-56
2022/01/03 02:31:32;;;;;;;25.95;4.57;;;8.90;99.90;;;;;;4963542;28;20038;-54
2022/01/03 02:34:00;;;;;;;29.05;5.72;;;8.90;99.90;;;;;;4978291;28;20053;-57
2022/01/03 02:36:29;;;;;;;25.05;4.97;;;8.80;99.90;;;;;;4979924;28;20567;-58
2022/01/03 02:38:55;;;;;;;27.23;4.78;;;8.80;99.90;;;;;;4961474;28;20755;-57
2022/01/03 02:41:21;;;;;;;24.35;5.25;;;8.80;99.90;;;;;;4977679;28;20757;-57
2022/01/03 02:43:50;;;;;;;30.58;4.63;;;8.80;99.90;;;;;;4965368;28;20385;-56
2022/01/03 02:46:16;;;;;;;38.20;6.20;;;8.80;99.90;;;;;;4965049;28;20133;-56
2022/01/03 02:48:42;;;;;;;23.48;4.70;;;8.80;99.90;;;;;;4981568;28;20117;-55
2022/01/03 02:51:07;;;;;;;24.73;4.88;;;8.90;99.90;;;;;;4963924;28;20113;-54
2022/01/03 02:53:33;;;;;;;29.08;4.50;;;8.80;99.90;;;;;;4962745;28;20049;-54
2022/01/03 02:56:00;;;;;;;24.50;4.78;;;8.80;99.90;;;;;;4958842;28;20054;-55
2022/01/03 02:58:26;;;;;;;19.88;4.25;;;8.80;99.90;;;;;;4965609;28;20046;-54
2022/01/03 03:00:52;;;;;;;31.85;5.88;;;8.80;99.90;;;;;;4946660;28;20042;-55
2022/01/03 03:03:20;;;;;;;35.40;6.07;;;8.70;99.90;;;;;;4970415;28;20042;-57
2022/01/03 03:05:46;;;;;;;28.98;5.10;;;8.80;99.90;;;;;;4983098;28;20100;-54
2022/01/03 03:08:13;;;;;;;26.02;5.03;;;8.80;99.90;;;;;;4951534;28;20506;-56
2022/01/03 03:10:39;;;;;;;35.97;5.72;;;8.70;99.90;;;;;;4958996;28;20105;-56
2022/01/03 03:13:05;;;;;;;22.42;5.53;;;8.70;99.90;;;;;;4975170;28;20038;-57
2022/01/03 03:15:31;;;;;;;29.58;5.03;;;8.70;99.90;;;;;;4976014;28;20107;-55
2022/01/03 03:17:58;;;;;;;20.90;4.10;;;8.70;99.90;;;;;;4935995;28;20672;-58
2022/01/03 03:20:27;;;;;;;28.55;4.82;;;8.70;99.90;;;;;;4940921;28;20465;-57
2022/01/03 03:22:55;;;;;;;27.98;6.25;;;8.70;99.90;;;;;;4971593;28;20081;-57
2022/01/03 03:25:32;;;;;;;20.73;4.22;;;8.70;99.90;;;;;;4960314;28;20064;-57
2022/01/03 03:28:02;;;;;;;30.85;6.13;;;8.70;99.90;;;;;;4960631;28;20096;-57
2022/01/03 03:30:41;;;;;;;32.78;4.50;;;8.70;99.90;;;;;;4967141;28;20041;-56
2022/01/03 03:33:19;;;;;;;26.55;4.35;;;8.70;99.90;;;;;;4960954;28;20045;-57
2022/01/03 03:35:46;;;;;;;37.05;6.63;;;8.70;99.90;;;;;;4960023;28;20045;-58
2022/01/03 03:38:12;;;;;;;35.13;5.43;;;8.70;99.90;;;;;;4964013;28;20185;-56
2022/01/03 03:40:39;;;;;;;31.73;5.57;;;8.70;99.90;;;;;;4954556;28;20046;-58
2022/01/03 03:43:05;;;;;;;31.67;5.28;;;8.70;99.90;;;;;;4959272;28;20066;-56
2022/01/03 03:45:32;;;;;;;26.15;4.78;;;8.70;99.90;;;;;;4962225;28;20133;-55
2022/01/03 03:47:57;;;;;;;24.77;5.93;;;8.60;99.90;;;;;;4965709;28;20035;-57
2022/01/03 03:50:25;;;;;;;32.45;5.15;;;8.70;99.90;;;;;;4942329;28;20049;-56
2022/01/03 03:52:51;;;;;;;29.75;5.50;;;8.70;99.90;;;;;;4966294;28;20101;-56
2022/01/03 03:55:17;;;;;;;28.38;6.80;;;8.70;99.90;;;;;;4943850;28;20050;-57
2022/01/03 03:57:42;;;;;;;31.60;6.45;;;8.80;99.90;;;;;;4946158;28;20048;-58
2022/01/03 04:00:15;;;;;;;37.63;6.90;;;8.80;99.90;;;;;;4962798;28;20046;-57
2022/01/03 04:02:40;;;;;;;20.55;5.65;;;8.80;99.90;;;;;;4961124;28;20075;-55
2022/01/03 04:05:07;;;;;;;30.50;5.88;;;8.80;99.90;;;;;;4949400;28;20644;-57
2022/01/03 04:07:33;;;;;;;35.45;6.93;;;8.70;99.90;;;;;;4943848;28;20042;-59
2022/01/03 04:09:58;;;;;;;38.25;5.28;;;8.70;99.90;;;;;;4958302;28;20084;-58
2022/01/03 04:12:24;;;;;;;25.67;4.35;;;8.70;99.90;;;;;;4980286;28;20366;-57
2022/01/03 04:14:50;;;;;;;35.10;6.10;;;8.70;99.90;;;;;;4959632;28;20038;-57
2022/01/03 04:17:16;;;;;;;37.50;6.50;;;8.70;99.90;;;;;;4975216;28;20077;-58
2022/01/03 04:19:42;;;;;;;34.50;6.20;;;8.70;99.90;;;;;;4961941;28;20042;-56
2022/01/03 04:22:08;;;;;;;32.47;6.03;;;8.60;99.90;;;;;;4980198;28;20485;-57
2022/01/03 04:24:34;;;;;;;27.85;5.13;;;8.70;99.90;;;;;;4967823;28;20057;-56
2022/01/03 04:27:00;;;;;;;37.58;6.22;;;8.60;99.90;;;;;;4964922;28;20050;-58
2022/01/03 04:29:26;;;;;;;42.42;5.95;;;8.70;99.90;;;;;;4983629;28;20034;-56
2022/01/03 04:31:52;;;;;;;31.00;5.05;;;8.60;99.90;;;;;;4948120;28;20053;-57
2022/01/03 04:34:18;;;;;;;30.52;5.35;;;8.60;99.90;;;;;;4968258;28;20418;-57
2022/01/03 04:36:44;;;;;;;32.97;5.25;;;8.60;99.90;;;;;;4968654;28;20046;-56
2022/01/03 04:39:10;;;;;;;31.38;5.40;;;8.60;99.90;;;;;;4968144;28;20502;-57
2022/01/03 04:41:35;;;;;;;40.63;6.15;;;8.60;99.90;;;;;;4981722;28;20050;-57
2022/01/03 04:44:05;;;;;;;35.50;6.03;;;8.60;99.90;;;;;;4966849;28;20035;-55
2022/01/03 04:46:35;;;;;;;28.60;5.03;;;8.60;99.90;;;;;;4981324;28;20043;-56
2022/01/03 04:49:02;;;;;;;37.25;5.63;;;8.70;99.90;;;;;;4958901;28;20398;-55
2022/01/03 04:51:28;;;;;;;36.15;5.82;;;8.70;99.90;;;;;;4985808;28;20045;-56
2022/01/03 04:53:54;;;;;;;28.23;5.25;;;8.70;99.90;;;;;;4964141;28;20042;-57
2022/01/03 04:56:19;;;;;;;29.60;5.65;;;8.70;99.90;;;;;;4979203;28;20101;-58
2022/01/03 04:58:45;;;;;;;35.78;7.18;;;8.60;99.90;;;;;;4942065;28;20105;-58
2022/01/03 05:01:12;;;;;;;37.75;5.82;;;8.60;99.90;;;;;;4948323;28;20054;-57
2022/01/03 05:03:37;;;;;;;32.65;6.18;;;8.70;99.90;;;;;;4966521;28;20085;-57
2022/01/03 05:06:04;;;;;;;35.35;6.47;;;8.70;99.90;;;;;;4964377;28;20464;-57
2022/01/03 05:08:31;;;;;;;36.42;5.32;;;8.60;99.90;;;;;;4966166;28;20046;-57
2022/01/03 05:11:00;;;;;;;32.60;5.22;;;8.60;99.90;;;;;;4951875;28;20050;-58
2022/01/03 05:13:30;;;;;;;31.70;6.32;;;8.70;99.90;;;;;;4949519;28;20050;-57
2022/01/03 05:15:57;;;;;;;36.17;5.68;;;8.70;99.90;;;;;;4982560;28;20117;-58
2022/01/03 05:18:23;;;;;;;32.28;6.22;;;8.70;99.90;;;;;;4943729;28;20100;-58
2022/01/03 05:20:48;;;;;;;32.60;6.32;;;8.70;99.90;;;;;;4978444;28;20042;-59
2022/01/03 05:23:14;;;;;;;30.15;5.95;;;8.70;99.90;;;;;;4975844;28;20136;-57
2022/01/03 05:25:40;;;;;;;39.45;7.63;;;8.70;99.90;;;;;;4969240;28;20365;-57
2022/01/03 05:28:06;;;;;;;31.08;5.75;;;8.70;99.90;;;;;;4957227;28;20457;-57
2022/01/03 05:30:32;;;;;;;33.10;6.13;;;8.70;99.90;;;;;;4964343;28;20045;-57
2022/01/03 05:32:57;;;;;;;36.40;6.93;;;8.70;99.90;;;;;;4959889;28;20042;-57
2022/01/03 05:35:23;;;;;;;38.40;6.30;;;8.70;99.90;;;;;;4963437;28;20052;-57
2022/01/03 05:37:49;;;;;;;30.20;5.53;;;8.70;99.90;;;;;;4983233;28;20056;-57
2022/01/03 05:40:15;;;;;;;35.88;6.35;;;8.70;99.90;;;;;;4965788;28;20273;-55
2022/01/03 05:42:41;;;;;;;43.30;5.95;;;8.70;99.90;;;;;;4978296;28;20085;-58
2022/01/03 05:45:08;;;;;;;38.90;6.57;;;8.70;99.90;;;;;;4966300;28;20421;-57
2022/01/03 05:47:34;;;;;;;31.15;6.22;;;8.70;99.90;;;;;;4961509;28;20039;-57
2022/01/03 05:49:59;;;;;;;35.75;5.85;;;8.70;99.90;;;;;;4964014;28;20034;-56
2022/01/03 05:52:25;;;;;;;36.97;6.88;;;8.70;99.90;;;;;;4999527;23;20042;-63
2022/01/03 05:54:52;;;;;;;35.35;5.85;;;8.70;99.90;;;;;;4983844;28;20045;-62
2022/01/03 05:57:21;;;;;;;36.92;6.03;;;8.70;99.90;;;;;;4980304;28;20046;-63
2022/01/03 05:59:46;;;;;;;36.90;6.55;;;8.70;99.90;;;;;;4960841;28;20046;-62
2022/01/03 06:02:12;;;;;;;32.92;5.97;;;8.70;99.90;;;;;;4975843;28;20049;-63
2022/01/03 06:04:54;;;;;;;29.60;5.45;;;8.70;99.90;;;;;;4968286;28;20042;-64
2022/01/03 06:07:20;;;;;;;31.67;7.28;;;8.70;99.90;;;;;;4964783;28;20437;-63
2022/01/03 06:09:47;;;;;;;38.22;6.70;;;8.70;99.90;;;;;;4959247;28;22159;-64
2022/01/03 06:12:13;;;;;;;33.88;6.47;;;8.70;99.90;;;;;;4954977;28;20054;-63
2022/01/03 06:14:39;;;;;;;38.00;6.20;;;8.70;99.90;;;;;;4968336;28;20054;-63
2022/01/03 06:17:06;;;;;;;39.88;6.82;;;8.70;99.90;;;;;;4973414;28;22217;-62
2022/01/03 06:19:36;;;;;;;34.75;5.68;;;8.70;99.90;;;;;;4987457;28;20030;-63
2022/01/03 06:22:03;;;;;;;29.20;6.20;;;8.70;99.90;;;;;;4986169;28;20101;-62
2022/01/03 06:24:29;;;;;;;39.80;8.02;;;8.70;99.90;;;;;;4958065;28;20258;-62
2022/01/03 06:26:55;;;;;;;33.83;6.80;;;8.70;99.90;;;;;;4969515;28;20061;-62
2022/01/03 06:29:21;;;;;;;40.25;6.45;;;8.70;99.90;;;;;;4955015;28;20129;-63
2022/01/03 06:31:48;;;;;;;36.63;6.07;;;8.70;99.90;;;;;;4953251;28;20125;-63
2022/01/03 06:34:15;;;;;;;30.17;6.22;;;8.70;99.90;;;;;;4969001;28;20046;-61
2022/01/03 06:36:41;;;;;;;36.22;6.32;;;8.70;99.90;;;;;;4993103;28;20107;-63
2022/01/03 06:39:09;;;;;;;33.88;5.55;;;8.70;99.90;;;;;;4993723;28;20633;-63
2022/01/03 06:41:35;;;;;;;37.22;6.53;;;8.70;99.90;;;;;;4997375;28;20037;-63
2022/01/03 06:44:01;;;;;;;34.38;5.15;;;8.70;99.90;;;;;;4987989;28;20040;-64
2022/01/03 06:46:27;;;;;;;31.42;5.95;;;8.80;99.90;;;;;;4961230;28;20069;-64
2022/01/03 06:48:52;;;;;;;27.70;6.88;;;8.70;99.90;;;;;;4982601;28;20045;-64
2022/01/03 06:51:18;;;;;;;29.77;5.75;;;8.70;99.90;;;;;;4994018;28;20512;-63
2022/01/03 06:53:44;;;;;;;36.50;5.43;;;8.70;99.90;;;;;;4981948;28;20042;-63
2022/01/03 06:56:10;;;;;;;49.65;8.27;;;8.70;99.90;;;;;;4975217;28;20073;-63
2022/01/03 06:58:38;;;;;;;36.50;6.45;;;8.70;99.90;;;;;;4972805;28;20038;-63
2022/01/03 07:01:05;;;;;;;33.50;5.93;;;8.80;99.90;;;;;;4992363;28;20316;-64
2022/01/03 07:03:31;;;;;;;33.65;5.53;;;8.70;99.90;;;;;;4963965;28;20053;-64
2022/01/03 07:05:56;;;;;;;35.40;6.38;;;8.70;99.90;;;;;;4965429;28;20041;-62
2022/01/03 07:08:22;;;;;;;32.88;5.30;;;8.70;99.90;;;;;;4995020;28;20785;-64
2022/01/03 07:10:49;;;;;;;41.45;6.32;;;8.70;99.90;;;;;;4979792;28;20489;-64
2022/01/03 07:13:15;;;;;;;41.55;6.93;;;8.80;99.90;;;;;;4984833;28;20500;-63
2022/01/03 07:21:10;;;;;;;;;;;8.70;99.90;;;;;;4972119;28;20046;-65
2022/01/03 07:23:36;;;;;;;41.88;8.07;;;8.70;99.90;;;;;;4970030;28;20153;-62
2022/01/03 07:26:02;;;;;;;33.35;7.25;;;8.70;99.90;;;;;;4990859;28;20567;-63
2022/01/03 07:28:28;;;;;;;38.05;6.13;;;8.70;99.90;;;;;;4982046;28;20103;-62
2022/01/03 07:30:53;;;;;;;44.17;5.90;;;8.70;99.90;;;;;;4964085;28;20045;-62
2022/01/03 07:33:19;;;;;;;40.60;6.40;;;8.70;99.90;;;;;;4958259;28;20080;-62
2022/01/03 07:35:45;;;;;;;37.00;6.65;;;8.80;99.90;;;;;;4957632;28;20046;-62
2022/01/03 07:38:11;;;;;;;33.28;6.47;;;8.70;99.90;;;;;;4956238;28;20057;-64
2022/01/03 07:40:36;;;;;;;47.30;5.90;;;8.70;99.90;;;;;;4955841;28;20044;-64
2022/01/03 07:43:02;;;;;;;41.58;7.30;;;8.70;99.90;;;;;;4952256;28;20492;-64
2022/01/03 07:45:28;;;;;;;29.63;5.55;;;8.80;99.90;;;;;;4959620;28;20109;-64
2022/01/03 07:47:54;;;;;;;34.03;6.40;;;8.70;99.90;;;;;;4957773;28;20184;-62
2022/01/03 07:50:20;;;;;;;38.67;6.60;;;8.70;99.90;;;;;;4924902;28;20404;-62
2022/01/03 07:52:45;;;;;;;33.63;7.55;;;8.80;99.90;;;;;;4963122;28;20049;-64
2022/01/03 07:55:13;;;;;;;44.58;7.47;;;8.70;99.90;;;;;;4960657;28;20057;-63
2022/01/03 07:57:39;;;;;;;37.42;6.43;;;8.70;99.90;;;;;;4960618;28;20042;-63
2022/01/03 08:00:08;;;;;;;34.42;6.35;;;8.70;99.90;;;;;;4978548;28;20046;-63
2022/01/03 08:02:34;;;;;;;30.25;5.10;;;8.80;99.90;;;;;;4962965;28;20638;-62
2022/01/03 08:04:59;;;;;;;38.05;5.93;;;8.80;99.90;;;;;;4964022;28;20046;-64
2022/01/03 08:07:25;;;;;;;29.30;6.20;;;8.80;99.90;;;;;;4974597;28;20034;-63
2022/01/03 08:09:51;;;;;;;35.75;7.25;;;8.80;99.90;;;;;;4974894;28;20042;-63
2022/01/03 08:12:18;;;;;;;30.98;6.25;;;8.80;99.90;;;;;;4987781;28;20042;-62
2022/01/03 08:14:45;;;;;;;35.30;7.35;;;8.80;99.90;;;;;;4960355;28;20057;-62
2022/01/03 08:17:11;;;;;;;31.88;5.93;;;8.80;99.90;;;;;;4943512;28;20054;-62
2022/01/03 08:19:36;;;;;;;34.95;5.53;;;8.80;99.90;;;;;;4973985;28;20038;-62
2022/01/03 08:22:03;;;;;;;32.40;6.03;;;8.80;99.90;;;;;;4979595;28;20035;-62
2022/01/03 08:24:28;;;;;;;35.08;6.13;;;8.80;99.90;;;;;;4972510;28;20428;-62
2022/01/03 08:26:54;;;;;;;33.78;5.95;;;8.80;99.90;;;;;;4986326;28;20050;-64
2022/01/03 08:29:20;;;;;;;37.60;6.32;;;8.80;99.90;;;;;;4956154;28;20195;-63
2022/01/03 08:31:46;;;;;;;41.80;6.90;;;8.80;99.90;;;;;;4952066;28;20050;-62
2022/01/03 08:34:13;;;;;;;31.00;6.53;;;8.90;99.90;;;;;;4955651;28;20053;-63
2022/01/03 08:36:38;;;;;;;38.63;5.90;;;8.90;99.90;;;;;;4979032;28;20080;-63
2022/01/03 08:39:05;;;;;;;37.97;6.50;;;8.90;99.90;;;;;;4981029;28;20485;-64
2022/01/03 08:41:34;;;;;;;32.45;6.35;;;8.90;99.90;;;;;;4980708;28;21206;-64
2022/01/03 08:43:59;;;;;;;38.25;5.60;;;9.00;99.90;;;;;;4979315;28;20413;-64
2022/01/03 08:46:25;;;;;;;32.95;6.47;;;9.00;99.90;;;;;;4968596;28;20037;-64
2022/01/03 08:48:52;;;;;;;32.35;5.70;;;9.00;99.90;;;;;;4975528;28;20129;-64
2022/01/03 08:51:18;;;;;;;35.10;6.70;;;9.00;99.90;;;;;;4951362;28;20046;-63
2022/01/03 08:53:44;;;;;;;33.03;6.07;;;9.10;99.90;;;;;;4986283;28;20045;-64
2022/01/03 08:56:10;;;;;;;30.45;7.45;;;9.00;99.90;;;;;;4967987;28;20046;-63
2022/01/03 08:58:35;;;;;;;30.50;5.00;;;9.10;99.90;;;;;;4982467;28;20128;-63
2022/01/03 09:01:02;;;;;;;29.70;5.22;;;9.10;99.90;;;;;;4960641;28;20046;-62
2022/01/03 09:03:27;;;;;;;33.08;5.55;;;9.10;99.90;;;;;;4960263;28;20069;-64
2022/01/03 09:05:54;;;;;;;33.72;7.28;;;9.10;99.90;;;;;;4955216;28;20046;-62
2022/01/03 09:08:22;;;;;;;33.92;5.10;;;9.10;99.90;;;;;;4975990;28;20507;-63
2022/01/03 09:10:49;;;;;;;36.78;5.95;;;9.10;99.90;;;;;;4968057;28;20053;-63
2022/01/03 09:13:15;;;;;;;35.20;5.60;;;9.10;99.90;;;;;;4970471;28;20488;-64
2022/01/03 09:15:44;;;;;;;30.10;5.10;;;9.30;99.90;;;;;;4956819;28;20049;-63
2022/01/03 09:18:26;;;;;;;33.70;6.45;;;9.20;99.90;;;;;;4968213;28;21378;-62
2022/01/03 09:20:52;;;;;;;43.97;7.22;;;9.20;99.90;;;;;;4978873;28;20052;-64
2022/01/03 09:23:24;;;;;;;32.13;5.80;;;9.20;99.90;;;;;;4976623;28;20431;-63
2022/01/03 09:28:51;;;;;;;;;;;9.30;99.90;;;;;;4980683;28;20320;-63
2022/01/03 09:31:29;;;;;;;26.77;5.28;;;9.30;99.90;;;;;;4988238;28;19928;-65
2022/01/03 09:33:57;;;;;;;26.75;4.88;;;9.30;99.90;;;;;;4978025;28;20152;-64
2022/01/03 09:36:24;;;;;;;33.92;6.22;;;9.30;99.90;;;;;;4963100;28;20314;-64
2022/01/03 09:38:50;;;;;;;33.25;6.18;;;9.40;99.90;;;;;;4977287;28;20050;-64
2022/01/03 09:41:22;;;;;;;33.63;7.38;;;9.40;99.90;;;;;;4970784;28;20057;-64
2022/01/03 09:43:57;;;;;;;36.85;6.55;;;9.40;99.90;;;;;;4996309;28;20125;-62
2022/01/03 09:46:31;;;;;;;30.92;5.63;;;9.40;99.90;;;;;;4981803;28;20079;-64
2022/01/03 09:48:57;;;;;;;33.95;5.45;;;9.50;99.90;;;;;;4982473;28;20069;-64
2022/01/03 09:51:31;;;;;;;37.05;6.82;;;9.50;99.90;;;;;;4937658;28;20048;-63
2022/01/03 09:54:01;;;;;;;34.08;4.72;;;9.50;99.90;;;;;;4970304;28;20038;-64
2022/01/03 09:56:30;;;;;;;29.17;5.30;;;9.50;99.90;;;;;;4968567;28;20620;-65
2022/01/03 09:58:56;;;;;;;26.85;6.35;;;9.60;99.90;;;;;;4961168;28;20034;-61
2022/01/03 10:01:24;;;;;;;30.50;5.68;;;9.60;99.90;;;;;;4995318;28;20425;-63
2022/01/03 10:03:50;;;;;;;31.80;5.70;;;9.60;99.90;;;;;;4975356;28;20525;-63
2022/01/03 10:06:17;;;;;;;27.70;5.75;;;9.70;99.90;;;;;;4972227;28;20065;-66
2022/01/03 10:08:43;;;;;;;40.13;6.68;;;9.70;99.90;;;;;;4977146;28;20100;-64
2022/01/03 10:11:09;;;;;;;28.15;6.57;;;9.80;99.90;;;;;;4982817;28;20046;-64
2022/01/03 10:13:35;;;;;;;25.77;5.30;;;9.80;99.90;;;;;;4975839;28;20428;-65
2022/01/03 10:16:01;;;;;;;25.23;5.80;;;9.80;99.90;;;;;;4998462;28;20536;-63
2022/01/03 10:18:27;;;;;;;26.00;6.15;;;9.80;99.90;;;;;;4979172;28;20052;-65
2022/01/03 10:20:56;;;;;;;30.13;5.90;;;9.80;99.90;;;;;;4978484;28;20041;-66
2022/01/03 10:23:21;;;;;;;29.08;5.10;;;9.80;99.90;;;;;;4959056;28;20038;-66
2022/01/03 10:25:47;;;;;;;28.13;5.47;;;9.90;99.90;;;;;;4982458;28;20048;-63
2022/01/03 10:28:28;;;;;;;27.48;5.57;;;9.90;99.90;;;;;;4973224;28;20050;-65
2022/01/03 10:30:54;;;;;;;24.35;5.07;;;10.00;99.90;;;;;;4984546;28;20073;-66
2022/01/03 10:33:23;;;;;;;32.60;6.43;;;10.00;99.90;;;;;;4972184;28;20076;-65
2022/01/03 10:35:52;;;;;;;30.95;4.85;;;10.00;99.90;;;;;;4974108;28;20049;-66
2022/01/03 10:38:33;;;;;;;36.97;8.20;;;10.10;99.90;;;;;;4946345;28;20436;-65
2022/01/03 10:41:28;;;;;;;25.95;5.22;;;10.10;99.90;;;;;;4995234;28;20126;-63
2022/01/03 10:43:56;;;;;;;28.45;6.00;;;10.10;99.90;;;;;;4964618;28;20516;-65
2022/01/03 10:46:28;;;;;;;34.97;5.68;;;10.20;99.90;;;;;;4992654;28;20103;-66
2022/01/03 10:49:21;;;;;;;31.80;5.72;;;10.20;99.90;;;;;;4991974;28;20046;-65
2022/01/03 10:51:47;;;;;;;36.63;6.53;;;10.30;99.90;;;;;;4981996;28;20046;-66
2022/01/03 10:54:19;;;;;;;26.02;4.65;;;10.30;99.90;;;;;;4974433;28;20046;-63
2022/01/03 10:56:48;;;;;;;33.17;6.45;;;10.30;99.90;;;;;;4973566;28;20544;-64
2022/01/03 10:59:21;;;;;;;35.03;7.30;;;10.30;99.90;;;;;;4962150;28;20401;-65
2022/01/03 11:01:52;;;;;;;26.58;5.32;;;10.40;99.90;;;;;;4984791;28;20038;-65
2022/01/03 11:04:52;;;;;;;28.13;4.95;;;10.40;99.90;;;;;;4976617;28;20041;-65
2022/01/03 11:13:22;;;;;;;35.97;6.68;;;10.50;99.90;;;;;;4915707;29;20075;-66
2022/01/03 11:15:54;;;;;;;29.17;5.18;;;10.50;99.90;;;;;;4950516;28;20102;-66
2022/01/03 11:18:30;;;;;;;34.70;5.28;;;10.60;99.90;;;;;;4966086;28;20273;-66
2022/01/03 11:21:26;;;;;;;30.92;5.25;;;10.60;99.90;;;;;;4974958;28;20113;-66
2022/01/03 11:24:04;;;;;;;26.52;5.28;;;10.60;99.90;;;;;;5002618;28;20041;-65
2022/01/03 11:26:33;;;;;;;24.50;5.57;;;10.70;99.90;;;;;;4984279;28;20049;-66
2022/01/03 11:29:00;;;;;;;30.70;6.35;;;10.70;99.90;;;;;;4974639;28;20298;-65
2022/01/03 11:31:28;;;;;;;26.77;4.85;;;10.70;99.90;;;;;;4977648;28;20064;-65
2022/01/03 11:33:54;;;;;;;26.38;5.95;;;10.70;99.90;;;;;;4970389;28;20046;-65
2022/01/03 11:36:23;;;;;;;29.63;5.30;;;10.80;99.90;;;;;;4959739;28;20042;-65
2022/01/03 11:38:49;;;;;;;33.92;5.65;;;10.80;99.90;;;;;;4955147;28;20140;-66
2022/01/03 11:41:15;;;;;;;26.52;5.72;;;10.80;99.90;;;;;;4978667;28;20476;-66
2022/01/03 11:43:43;;;;;;;33.92;5.32;;;10.90;99.90;;;;;;4977708;28;20042;-66
2022/01/03 11:46:10;;;;;;;28.58;5.63;;;10.80;99.90;;;;;;4978909;28;20107;-63
2022/01/03 11:48:36;;;;;;;26.30;4.53;;;10.90;99.90;;;;;;4972689;28;20038;-66
2022/01/03 11:51:06;;;;;;;31.73;6.28;;;10.90;99.90;;;;;;4946323;28;20026;-66
2022/01/03 11:53:42;;;;;;;25.20;4.95;;;10.90;99.90;;;;;;4972779;28;20050;-67
2022/01/03 11:56:17;;;;;;;29.23;5.35;;;11.00;99.90;;;;;;4982393;28;20057;-66
2022/01/03 11:58:49;;;;;;;23.80;4.95;;;11.00;99.90;;;;;;4974728;28;20038;-66
2022/01/03 12:04:16;;;;;;;30.17;5.68;;;10.80;99.90;;;;;;4920773;28;20737;-66
2022/01/03 12:06:44;;;;;;;27.58;5.20;;;10.90;99.90;;;;;;4954025;28;20594;-66
2022/01/03 12:09:12;;;;;;;26.77;5.88;;;11.00;99.90;;;;;;4948998;28;20084;-67
2022/01/03 12:11:53;;;;;;;25.45;4.75;;;11.00;99.90;;;;;;4951753;28;20156;-67
2022/01/03 12:14:21;;;;;;;25.90;5.75;;;11.10;99.90;;;;;;4962714;28;21681;-66
2022/01/03 12:16:51;;;;;;;30.27;6.05;;;11.10;99.90;;;;;;4970948;28;20048;-67
2022/01/03 12:19:31;;;;;;;31.85;5.97;;;11.10;99.90;;;;;;4969406;28;21002;-67
2022/01/03 12:22:07;;;;;;;29.83;5.50;;;11.10;99.90;;;;;;4999619;23;20049;-61
2022/01/03 12:24:33;;;;;;;31.67;5.35;;;11.00;99.90;;;;;;4972470;28;20171;-57
2022/01/03 12:27:14;;;;;;;37.38;6.85;;;11.10;99.90;;;;;;4972520;28;20049;-57
2022/01/03 12:29:59;;;;;;;30.67;6.63;;;11.10;99.90;;;;;;4967396;28;20050;-59
2022/01/03 12:32:32;;;;;;;28.52;4.80;;;11.00;99.90;;;;;;4972525;28;20243;-57
2022/01/03 12:35:16;;;;;;;29.38;5.30;;;11.00;99.90;;;;;;4980582;28;20372;-56
2022/01/03 12:37:47;;;;;;;;;;;11.00;99.90;;;;;;4980603;28;20564;-58
2022/01/03 12:40:19;;;;;;;26.13;4.85;;;10.90;99.90;;;;;;4967107;28;19918;-59
2022/01/03 12:45:15;;;;;;;27.70;5.20;;;10.80;99.90;;;;;;4996997;28;20521;-56
2022/01/03 12:47:41;;;;;;;30.45;5.70;;;10.80;99.90;;;;;;4994675;28;20038;-59
2022/01/03 12:50:28;;;;;;;28.45;5.38;;;10.80;99.90;;;;;;4980773;28;20050;-59
2022/01/03 12:52:54;;;;;;;31.65;4.95;;;10.70;99.90;;;;;;4984282;28;20042;-58
2022/01/03 12:55:39;;;;;;;30.67;5.22;;;10.70;99.90;;;;;;4982405;28;20046;-57
2022/01/03 12:58:19;;;;;;;32.45;6.90;;;10.60;99.90;;;;;;5007331;28;20042;-58
2022/01/03 13:00:56;;;;;;;30.80;6.03;;;10.60;99.90;;;;;;4980092;28;20042;-58
2022/01/03 13:03:22;;;;;;;32.88;6.25;;;10.60;99.90;;;;;;4989906;28;20034;-54
2022/01/03 13:06:26;;;;;;;26.30;5.03;;;10.60;99.90;;;;;;4982089;28;20101;-55
2022/01/03 13:08:54;;;;;;;29.58;5.80;;;10.60;99.90;;;;;;4998380;28;20037;-58
2022/01/03 13:11:27;;;;;;;28.13;7.00;;;10.60;99.90;;;;;;4987886;28;20042;-58
2022/01/03 13:13:59;;;;;;;24.38;6.28;;;10.50;99.90;;;;;;4968594;28;20129;-58
2022/01/03 13:16:28;;;;;;;31.38;6.57;;;10.50;99.90;;;;;;4976508;28;20608;-58